createdAt,value
2018-09-18T08:10:29.349Z,88.60
2018-09-18T08:12:57.597Z,88.40
2018-09-18T08:15:26.001Z,87.40
2018-09-18T08:17:54.255Z,87.00
2018-09-18T08:20:22.498Z,87.10
2018-09-18T08:22:50.747Z,86.80
2018-09-18T08:25:19.054Z,83.10
2018-09-18T08:27:47.804Z,84.30
2018-09-18T08:30:16.015Z,83.30
2018-09-18T08:32:44.625Z,83.20
2018-09-18T08:35:12.833Z,83.60
2018-09-18T08:37:41.423Z,82.40
2018-09-18T08:40:09.784Z,82.00
2018-09-18T08:42:37.903Z,81.30
2018-09-18T08:45:06.181Z,82.00
2018-09-18T08:47:34.558Z,81.20
2018-09-18T08:50:02.764Z,81.30
2018-09-18T08:52:31.270Z,81.80
2018-09-18T08:54:59.516Z,80.30
2018-09-18T08:57:29.232Z,79.70
2018-09-18T08:59:58.428Z,78.30
2018-09-18T09:02:26.753Z,78.30
2018-09-18T09:04:55.058Z,77.60
2018-09-18T09:07:23.356Z,77.30
2018-09-18T09:09:51.603Z,75.30
2018-09-18T09:12:19.878Z,75.70
2018-09-18T09:14:48.180Z,76.00
2018-09-18T09:17:16.420Z,73.80
2018-09-18T09:19:44.911Z,72.30
2018-09-18T09:22:13.545Z,70.10
2018-09-18T09:24:41.710Z,69.20
2018-09-18T09:27:09.992Z,70.00
2018-09-18T09:29:38.330Z,70.00
2018-09-18T09:32:07.066Z,66.40
2018-09-18T09:34:35.338Z,66.50
2018-09-18T09:37:03.688Z,66.80
2018-09-18T09:39:31.860Z,66.70
2018-09-18T09:42:00.075Z,66.10
2018-09-18T09:44:28.301Z,65.20
2018-09-18T09:46:58.167Z,63.80
2018-09-18T09:49:26.414Z,63.80
2018-09-18T09:51:54.708Z,63.60
2018-09-18T09:54:22.990Z,63.40
2018-09-18T09:56:51.340Z,63.00
2018-09-18T09:59:19.693Z,63.10
2018-09-18T10:01:55.079Z,63.90
2018-09-18T10:04:23.696Z,63.10
2018-09-18T10:06:52.039Z,63.50
2018-09-18T10:09:20.639Z,63.00
2018-09-18T10:11:49.512Z,63.10
2018-09-18T10:14:17.756Z,60.40
2018-09-18T10:16:46.319Z,59.60
2018-09-18T10:19:14.846Z,59.10
2018-09-18T10:21:43.063Z,59.60
2018-09-18T10:24:11.339Z,60.80
2018-09-18T10:26:39.917Z,61.60
2018-09-18T10:29:08.162Z,60.90
2018-09-18T10:31:36.453Z,61.00
2018-09-18T10:34:04.940Z,58.20
2018-09-18T10:36:33.176Z,58.50
2018-09-18T10:39:01.571Z,59.00
2018-09-18T10:41:29.973Z,59.70
2018-09-18T10:43:58.128Z,59.30
2018-09-18T10:46:26.350Z,58.10
2018-09-18T10:48:57.415Z,58.60
2018-09-18T10:51:25.866Z,59.40
2018-09-18T10:53:54.465Z,58.00
2018-09-18T10:56:22.781Z,57.90
2018-09-18T10:58:52.096Z,57.90
2018-09-18T11:01:20.548Z,58.10
2018-09-18T11:03:48.828Z,58.00
2018-09-18T11:06:17.060Z,57.80
2018-09-18T11:08:46.404Z,57.00
2018-09-18T11:11:14.662Z,55.90
2018-09-18T11:13:42.836Z,55.90
2018-09-18T11:16:11.124Z,54.30
2018-09-18T11:18:39.390Z,54.70
2018-09-18T11:21:07.599Z,55.10
2018-09-18T11:23:35.829Z,55.70
2018-09-18T11:26:04.067Z,56.10
2018-09-18T11:28:32.321Z,55.60
2018-09-18T11:31:00.519Z,54.20
2018-09-18T11:33:28.788Z,54.70
2018-09-18T11:35:57.777Z,54.30
2018-09-18T11:38:26.020Z,54.70
2018-09-18T11:40:54.243Z,54.60
2018-09-18T11:43:23.021Z,54.70
2018-09-18T11:45:51.413Z,53.30
2018-09-18T11:48:19.470Z,52.60
2018-09-18T11:50:47.699Z,52.50
2018-09-18T11:53:15.920Z,51.60
2018-09-18T11:55:44.187Z,52.80
2018-09-18T11:58:12.449Z,52.90
2018-09-18T12:00:40.830Z,51.90
2018-09-18T12:03:09.122Z,52.30
2018-09-18T12:05:37.309Z,52.90
2018-09-18T12:08:05.591Z,52.60
2018-09-18T12:10:33.901Z,51.60
2018-09-18T12:13:02.721Z,52.10
2018-09-18T12:15:31.472Z,52.70
2018-09-18T12:17:59.704Z,51.80
2018-09-18T12:20:28.304Z,51.20
2018-09-18T12:22:57.496Z,51.70
2018-09-18T12:25:25.888Z,52.00
2018-09-18T12:27:54.140Z,51.90
2018-09-18T12:30:22.465Z,51.10
2018-09-18T12:32:51.049Z,51.30
2018-09-18T12:35:19.363Z,50.50
2018-09-18T12:37:47.722Z,49.40
2018-09-18T12:40:15.971Z,50.10
2018-09-18T12:42:44.341Z,50.70
2018-09-18T12:45:12.481Z,51.80
2018-09-18T12:47:40.775Z,52.30
2018-09-18T12:50:09.109Z,51.30
2018-09-18T12:52:37.278Z,50.90
2018-09-18T12:55:05.681Z,50.90
2018-09-18T12:57:34.119Z,50.80
2018-09-18T13:00:02.381Z,50.90
2018-09-18T13:02:30.690Z,50.00
2018-09-18T13:04:59.237Z,49.80
2018-09-18T13:07:27.788Z,50.80
2018-09-18T13:09:56.089Z,51.20
2018-09-18T13:12:25.199Z,48.40
2018-09-18T13:14:53.455Z,48.40
2018-09-18T13:17:21.687Z,49.20
2018-09-18T13:19:49.992Z,49.90
2018-09-18T13:22:18.225Z,49.10
2018-09-18T13:24:46.470Z,49.20
2018-09-18T13:27:14.691Z,50.00
2018-09-18T13:29:42.932Z,50.70
2018-09-18T13:32:11.163Z,51.10
2018-09-18T13:34:39.417Z,51.90
2018-09-18T13:37:10.252Z,52.30
2018-09-18T13:39:38.481Z,54.50
2018-09-18T13:42:06.789Z,55.70
2018-09-18T13:44:35.232Z,56.50
2018-09-18T13:47:03.475Z,57.90
2018-09-18T13:49:31.745Z,57.50
2018-09-18T13:52:00.067Z,57.80
2018-09-18T13:54:28.254Z,57.60
2018-09-18T13:56:56.510Z,58.00
2018-09-18T13:59:25.345Z,58.70
2018-09-18T14:01:53.618Z,58.70
2018-09-18T14:04:21.867Z,59.00
2018-09-18T14:06:50.076Z,58.20
2018-09-18T14:09:18.338Z,56.40
2018-09-18T14:11:47.154Z,55.80
2018-09-18T14:14:16.120Z,55.40
2018-09-18T14:16:44.356Z,53.50
2018-09-18T14:19:12.584Z,53.20
2018-09-18T14:21:40.816Z,53.30
2018-09-18T14:24:09.078Z,53.10
2018-09-18T14:26:37.521Z,52.20
2018-09-18T14:29:05.768Z,52.70
2018-09-18T14:31:34.016Z,53.50
2018-09-18T14:34:02.237Z,52.50
2018-09-18T14:36:31.330Z,52.00
2018-09-18T14:38:59.564Z,51.80
2018-09-18T14:44:18.431Z,50.40
2018-09-18T14:46:46.649Z,49.80
2018-09-18T14:49:14.861Z,50.10
2018-09-18T14:51:43.112Z,48.40
2018-09-18T14:54:13.384Z,48.50
2018-09-18T14:56:41.670Z,48.20
2018-09-18T14:59:09.906Z,48.00
2018-09-18T15:01:38.390Z,47.30
2018-09-18T15:04:06.692Z,47.80
2018-09-18T15:06:34.916Z,47.30
2018-09-18T15:09:03.776Z,47.30
2018-09-18T15:11:32.000Z,48.20
2018-09-18T15:14:00.221Z,48.50
2018-09-18T15:16:28.450Z,46.50
2018-09-18T15:18:56.683Z,48.00
2018-09-18T15:21:24.956Z,48.00
2018-09-18T15:23:53.120Z,47.60
2018-09-18T15:26:21.344Z,47.30
2018-09-18T15:28:49.554Z,46.50
2018-09-18T15:31:17.821Z,46.80
2018-09-18T15:33:46.092Z,46.80
2018-09-18T15:36:14.688Z,46.30
2018-09-18T15:38:42.923Z,48.40
2018-09-18T15:41:11.193Z,47.70
2018-09-18T15:43:39.412Z,45.50
2018-09-18T15:46:07.732Z,45.80
2018-09-18T15:48:36.082Z,45.70
2018-09-18T15:51:04.275Z,46.10
2018-09-18T15:53:32.494Z,47.10
2018-09-18T15:56:00.718Z,47.60
2018-09-18T15:58:28.968Z,49.30
2018-09-18T16:00:57.245Z,50.70
2018-09-18T16:03:25.526Z,51.90
2018-09-18T16:05:53.771Z,53.70
2018-09-18T16:08:22.009Z,55.30
2018-09-18T16:10:50.234Z,56.30
2018-09-18T16:13:18.449Z,57.70
2018-09-18T16:15:46.696Z,58.90
2018-09-18T16:18:14.934Z,59.30
2018-09-18T16:20:43.149Z,59.90
2018-09-18T16:23:11.416Z,60.30
2018-09-18T16:25:39.681Z,60.10
2018-09-18T16:28:08.148Z,61.50
2018-09-18T16:30:36.354Z,62.00
2018-09-18T16:33:09.105Z,61.20
2018-09-18T16:35:37.301Z,62.30
2018-09-18T16:38:05.520Z,62.50
2018-09-18T16:40:33.808Z,63.30
2018-09-18T16:43:01.952Z,63.50
2018-09-18T16:45:30.151Z,64.30
2018-09-18T16:47:58.403Z,65.00
2018-09-18T16:50:26.632Z,65.90
2018-09-18T16:52:54.844Z,65.80
2018-09-18T16:55:23.301Z,66.30
2018-09-18T16:57:51.541Z,66.70
2018-09-18T17:00:19.812Z,67.40
2018-09-18T17:02:47.980Z,68.20
2018-09-18T17:05:16.192Z,68.30
2018-09-18T17:07:44.407Z,67.30
2018-09-18T17:10:12.650Z,67.50
2018-09-18T17:12:41.038Z,66.10
2018-09-18T17:15:09.261Z,66.10
2018-09-18T17:17:37.566Z,64.70
2018-09-18T17:20:06.387Z,64.10
2018-09-18T17:22:34.770Z,63.80
2018-09-18T17:25:02.940Z,63.70
2018-09-18T17:27:31.204Z,64.40
2018-09-18T17:29:59.441Z,66.20
2018-09-18T17:32:27.664Z,67.70
2018-09-18T17:34:55.895Z,69.10
2018-09-18T17:37:26.948Z,69.70
2018-09-18T17:39:55.575Z,68.60
2018-09-18T17:42:25.733Z,68.60
2018-09-18T17:44:53.971Z,66.80
2018-09-18T17:47:22.291Z,64.90
2018-09-18T17:49:51.036Z,62.80
2018-09-18T17:52:19.265Z,61.60
2018-09-18T17:54:47.559Z,60.60
2018-09-18T17:57:16.360Z,60.50
2018-09-18T17:59:45.074Z,61.10
2018-09-18T18:02:13.274Z,62.40
2018-09-18T18:04:41.501Z,62.80
2018-09-18T18:07:09.896Z,61.10
2018-09-18T18:09:38.298Z,59.30
2018-09-18T18:12:06.562Z,58.00
2018-09-18T18:14:35.413Z,57.20
2018-09-18T18:17:03.656Z,57.00
2018-09-18T18:19:32.336Z,56.80
2018-09-18T18:22:01.275Z,56.90
2018-09-18T18:24:29.510Z,56.10
2018-09-18T18:26:58.296Z,55.60
2018-09-18T18:29:26.797Z,56.10
2018-09-18T18:31:55.524Z,57.80
2018-09-18T18:34:23.735Z,58.50
2018-09-18T18:36:51.953Z,59.20
2018-09-18T18:39:20.176Z,60.50
2018-09-18T18:41:48.424Z,62.10
2018-09-18T18:44:16.689Z,62.70
2018-09-18T18:46:44.898Z,62.00
2018-09-18T18:49:13.120Z,61.80
2018-09-18T18:51:41.396Z,61.70
2018-09-18T18:54:10.079Z,61.30
2018-09-18T18:56:38.675Z,62.90
2018-09-18T18:59:06.892Z,64.00
2018-09-18T19:01:35.316Z,64.50
2018-09-18T19:04:03.559Z,66.40
2018-09-18T19:06:32.499Z,66.80
2018-09-18T19:09:00.718Z,66.20
2018-09-18T19:11:28.917Z,65.90
2018-09-18T19:13:57.493Z,65.40
2018-09-18T19:16:25.732Z,67.50
2018-09-18T19:18:54.017Z,67.10
2018-09-18T19:21:22.294Z,67.20
2018-09-18T19:23:50.797Z,67.10
2018-09-18T19:26:21.367Z,67.60
2018-09-18T19:28:49.601Z,67.90
2018-09-18T19:31:17.849Z,68.20
2018-09-18T19:33:46.150Z,68.40
2018-09-18T19:36:14.510Z,68.80
2018-09-18T19:38:43.610Z,68.80
2018-09-18T19:41:12.432Z,68.50
2018-09-18T19:43:40.696Z,68.70
2018-09-18T19:46:09.157Z,69.30
2018-09-18T19:48:37.448Z,68.10
2018-09-18T19:51:05.805Z,67.70
2018-09-18T19:53:34.043Z,67.70
2018-09-18T19:56:02.412Z,67.90
2018-09-18T19:58:30.684Z,67.80
2018-09-18T20:00:58.950Z,67.50
2018-09-18T20:03:27.271Z,68.10
2018-09-18T20:05:55.430Z,68.00
2018-09-18T20:08:23.677Z,67.70
2018-09-18T20:10:51.939Z,67.70
2018-09-18T20:13:20.160Z,67.30
2018-09-18T20:15:48.368Z,67.90
2018-09-18T20:18:16.643Z,68.20
2018-09-18T20:20:44.873Z,68.70
2018-09-18T20:23:13.305Z,69.00
2018-09-18T20:25:41.792Z,69.10
2018-09-18T20:28:10.138Z,69.00
2018-09-18T20:30:38.680Z,69.70
2018-09-18T20:33:06.909Z,69.90
2018-09-18T20:35:35.194Z,70.80
2018-09-18T20:38:03.420Z,71.60
2018-09-18T20:40:31.659Z,72.70
2018-09-18T20:42:59.873Z,73.50
2018-09-18T20:45:28.115Z,74.30
2018-09-18T20:47:56.506Z,75.30
2018-09-18T20:50:24.765Z,75.90
2018-09-18T20:52:54.428Z,76.60
2018-09-18T20:55:22.665Z,77.70
2018-09-18T20:57:50.880Z,78.70
2018-09-18T21:00:19.107Z,79.30
2018-09-18T21:02:47.440Z,78.30
2018-09-18T21:05:15.724Z,79.30
2018-09-18T21:07:43.949Z,78.90
2018-09-18T21:10:12.187Z,79.60
2018-09-18T21:12:40.439Z,79.60
2018-09-18T21:15:08.919Z,79.50
2018-09-18T21:17:37.144Z,79.50
2018-09-18T21:20:05.446Z,80.30
2018-09-18T21:22:33.694Z,80.80
2018-09-18T21:25:13.893Z,81.00
2018-09-18T21:27:43.100Z,80.90
2018-09-18T21:30:11.891Z,81.00
2018-09-18T21:32:40.418Z,80.20
2018-09-18T21:35:09.170Z,80.00
2018-09-18T21:37:37.746Z,80.90
2018-09-18T21:40:05.973Z,80.60
2018-09-18T21:42:34.350Z,81.20
2018-09-18T21:45:03.666Z,81.50
2018-09-18T21:47:31.916Z,81.90
2018-09-18T21:50:00.308Z,82.10
2018-09-18T21:52:28.775Z,82.50
2018-09-18T21:54:57.039Z,83.50
2018-09-18T21:57:25.331Z,83.90
2018-09-18T21:59:53.582Z,84.20
2018-09-18T22:02:30.876Z,84.50
2018-09-18T22:04:59.145Z,84.60
2018-09-18T22:07:27.393Z,84.40
2018-09-18T22:09:55.632Z,85.30
2018-09-18T22:12:24.700Z,84.90
2018-09-18T22:14:53.941Z,84.40
2018-09-18T22:17:22.168Z,84.90
2018-09-18T22:19:50.417Z,85.10
2018-09-18T22:22:22.573Z,85.00
2018-09-18T22:24:50.760Z,85.50
2018-09-18T22:27:19.609Z,85.50
2018-09-18T22:29:47.849Z,85.50
2018-09-18T22:32:16.334Z,86.50
2018-09-18T22:34:44.600Z,85.70
2018-09-18T22:37:12.833Z,86.40
2018-09-18T22:39:41.054Z,86.00
2018-09-18T22:42:09.337Z,86.00
2018-09-18T22:44:37.565Z,86.20
2018-09-18T22:47:05.958Z,85.00
2018-09-18T22:49:34.197Z,82.20
2018-09-18T22:52:02.438Z,81.70
2018-09-18T22:54:30.658Z,81.80
2018-09-18T22:56:58.921Z,82.00
2018-09-18T22:59:27.144Z,82.20
2018-09-18T23:01:55.377Z,81.00
2018-09-18T23:04:23.590Z,80.10
2018-09-18T23:06:51.824Z,81.40
2018-09-18T23:09:20.068Z,82.80
2018-09-18T23:11:48.305Z,83.40
2018-09-18T23:14:16.545Z,83.70
2018-09-18T23:16:44.805Z,84.30
2018-09-18T23:19:13.001Z,84.20
2018-09-18T23:21:41.230Z,83.50
2018-09-18T23:24:09.910Z,84.40
2018-09-18T23:26:38.815Z,85.00
2018-09-18T23:29:07.608Z,85.40
2018-09-18T23:31:36.166Z,85.40
2018-09-18T23:34:04.434Z,85.30
2018-09-18T23:36:32.684Z,87.40
2018-09-18T23:39:00.967Z,87.70
2018-09-18T23:41:29.312Z,87.40
2018-09-18T23:43:58.025Z,87.20
2018-09-18T23:46:26.250Z,87.90
2018-09-18T23:48:54.471Z,88.80
2018-09-18T23:51:22.701Z,88.40
2018-09-18T23:53:50.960Z,88.00
2018-09-18T23:56:19.183Z,88.80
2018-09-18T23:58:47.510Z,90.00
